sensor_id;sensor_type;location;lat;lon;timestamp;P1;durP1;ratioP1;P2;durP2;ratioP2
49728;SDS011;66333;49.798;10.968;2023-01-08T00:00:43;4.47;;;2.70;;
49728;SDS011;66333;49.798;10.968;2023-01-08T00:03:09;4.70;;;2.50;;
49728;SDS011;66333;49.798;10.968;2023-01-08T00:05:35;4.63;;;2.80;;
49728;SDS011;66333;49.798;10.968;2023-01-08T00:08:02;5.00;;;2.50;;
49728;SDS011;66333;49.798;10.968;2023-01-08T00:10:29;4.40;;;2.10;;
49728;SDS011;66333;49.798;10.968;2023-01-08T00:12:55;4.77;;;2.53;;
49728;SDS011;66333;49.798;10.968;2023-01-08T00:15:23;4.53;;;2.43;;
49728;SDS011;66333;49.798;10.968;2023-01-08T00:17:49;5.33;;;2.43;;
49728;SDS011;66333;49.798;10.968;2023-01-08T00:20:16;5.07;;;2.90;;
49728;SDS011;66333;49.798;10.968;2023-01-08T00:22:42;5.13;;;2.80;;
49728;SDS011;66333;49.798;10.968;2023-01-08T00:25:09;5.27;;;2.70;;
49728;SDS011;66333;49.798;10.968;2023-01-08T00:27:35;5.13;;;2.60;;
49728;SDS011;66333;49.798;10.968;2023-01-08T00:30:02;4.67;;;2.57;;
49728;SDS011;66333;49.798;10.968;2023-01-08T00:32:30;6.47;;;2.70;;
49728;SDS011;66333;49.798;10.968;2023-01-08T00:34:56;4.37;;;2.43;;
49728;SDS011;66333;49.798;10.968;2023-01-08T00:37:22;4.97;;;2.70;;
49728;SDS011;66333;49.798;10.968;2023-01-08T00:39:49;4.83;;;2.77;;
49728;SDS011;66333;49.798;10.968;2023-01-08T00:42:16;5.73;;;3.07;;
49728;SDS011;66333;49.798;10.968;2023-01-08T00:44:42;4.60;;;2.80;;
49728;SDS011;66333;49.798;10.968;2023-01-08T00:47:09;4.90;;;2.77;;
49728;SDS011;66333;49.798;10.968;2023-01-08T00:49:36;4.77;;;2.60;;
49728;SDS011;66333;49.798;10.968;2023-01-08T00:52:03;5.33;;;2.67;;
49728;SDS011;66333;49.798;10.968;2023-01-08T00:54:30;4.53;;;2.80;;
49728;SDS011;66333;49.798;10.968;2023-01-08T00:56:56;4.73;;;2.57;;
49728;SDS011;66333;49.798;10.968;2023-01-08T00:59:22;4.43;;;2.57;;
49728;SDS011;66333;49.798;10.968;2023-01-08T01:01:49;4.77;;;2.80;;
49728;SDS011;66333;49.798;10.968;2023-01-08T01:04:16;4.90;;;2.70;;
49728;SDS011;66333;49.798;10.968;2023-01-08T01:06:44;5.00;;;2.37;;
49728;SDS011;66333;49.798;10.968;2023-01-08T01:09:10;4.73;;;2.70;;
49728;SDS011;66333;49.798;10.968;2023-01-08T01:11:37;4.80;;;2.80;;
49728;SDS011;66333;49.798;10.968;2023-01-08T01:14:03;5.37;;;2.87;;
49728;SDS011;66333;49.798;10.968;2023-01-08T01:16:30;5.73;;;2.90;;
49728;SDS011;66333;49.798;10.968;2023-01-08T01:18:56;4.50;;;2.63;;
49728;SDS011;66333;49.798;10.968;2023-01-08T01:21:23;4.80;;;2.73;;
49728;SDS011;66333;49.798;10.968;2023-01-08T01:23:53;4.93;;;2.70;;
49728;SDS011;66333;49.798;10.968;2023-01-08T01:26:22;5.30;;;2.87;;
49728;SDS011;66333;49.798;10.968;2023-01-08T01:28:50;5.33;;;3.00;;
49728;SDS011;66333;49.798;10.968;2023-01-08T01:31:17;5.07;;;3.03;;
49728;SDS011;66333;49.798;10.968;2023-01-08T01:33:45;5.10;;;2.93;;
49728;SDS011;66333;49.798;10.968;2023-01-08T01:36:12;5.37;;;2.70;;
49728;SDS011;66333;49.798;10.968;2023-01-08T01:38:41;5.60;;;2.87;;
49728;SDS011;66333;49.798;10.968;2023-01-08T01:41:10;4.73;;;2.87;;
49728;SDS011;66333;49.798;10.968;2023-01-08T01:43:44;5.37;;;2.93;;
49728;SDS011;66333;49.798;10.968;2023-01-08T01:46:15;5.60;;;3.00;;
49728;SDS011;66333;49.798;10.968;2023-01-08T01:48:47;5.10;;;3.10;;
49728;SDS011;66333;49.798;10.968;2023-01-08T01:51:17;4.93;;;2.80;;
49728;SDS011;66333;49.798;10.968;2023-01-08T01:53:44;4.90;;;2.90;;
49728;SDS011;66333;49.798;10.968;2023-01-08T01:56:13;4.93;;;3.00;;
49728;SDS011;66333;49.798;10.968;2023-01-08T01:58:39;5.30;;;3.20;;
49728;SDS011;66333;49.798;10.968;2023-01-08T02:01:06;4.77;;;2.80;;
49728;SDS011;66333;49.798;10.968;2023-01-08T02:03:35;5.60;;;3.20;;
49728;SDS011;66333;49.798;10.968;2023-01-08T02:06:04;4.73;;;3.00;;
49728;SDS011;66333;49.798;10.968;2023-01-08T02:08:55;5.13;;;2.90;;
49728;SDS011;66333;49.798;10.968;2023-01-08T02:11:30;5.53;;;3.33;;
49728;SDS011;66333;49.798;10.968;2023-01-08T02:14:07;5.30;;;3.00;;
49728;SDS011;66333;49.798;10.968;2023-01-08T02:16:43;5.57;;;3.03;;
49728;SDS011;66333;49.798;10.968;2023-01-08T02:19:16;5.60;;;3.00;;
49728;SDS011;66333;49.798;10.968;2023-01-08T02:21:52;5.47;;;2.90;;
49728;SDS011;66333;49.798;10.968;2023-01-08T02:24:29;5.10;;;2.93;;
49728;SDS011;66333;49.798;10.968;2023-01-08T02:27:08;5.30;;;2.97;;
49728;SDS011;66333;49.798;10.968;2023-01-08T02:29:34;5.57;;;3.20;;
49728;SDS011;66333;49.798;10.968;2023-01-08T02:32:01;5.13;;;2.83;;
49728;SDS011;66333;49.798;10.968;2023-01-08T02:34:28;4.90;;;2.93;;
49728;SDS011;66333;49.798;10.968;2023-01-08T02:36:56;5.23;;;3.27;;
49728;SDS011;66333;49.798;10.968;2023-01-08T02:39:34;4.80;;;2.80;;
49728;SDS011;66333;49.798;10.968;2023-01-08T02:42:13;5.40;;;2.73;;
49728;SDS011;66333;49.798;10.968;2023-01-08T02:44:55;5.27;;;2.93;;
49728;SDS011;66333;49.798;10.968;2023-01-08T02:47:28;4.90;;;2.97;;
49728;SDS011;66333;49.798;10.968;2023-01-08T02:52:47;6.10;;;3.03;;
49728;SDS011;66333;49.798;10.968;2023-01-08T02:57:49;5.67;;;3.33;;
49728;SDS011;66333;49.798;10.968;2023-01-08T03:00:17;5.13;;;2.90;;
49728;SDS011;66333;49.798;10.968;2023-01-08T03:02:44;5.73;;;3.10;;
49728;SDS011;66333;49.798;10.968;2023-01-08T03:05:13;5.40;;;2.90;;
49728;SDS011;66333;49.798;10.968;2023-01-08T03:07:46;4.88;;;2.95;;
49728;SDS011;66333;49.798;10.968;2023-01-08T03:10:12;5.90;;;3.40;;
49728;SDS011;66333;49.798;10.968;2023-01-08T03:12:43;5.10;;;2.80;;
49728;SDS011;66333;49.798;10.968;2023-01-08T03:15:15;5.10;;;3.20;;
49728;SDS011;66333;49.798;10.968;2023-01-08T03:17:48;5.00;;;3.03;;
49728;SDS011;66333;49.798;10.968;2023-01-08T03:20:18;5.20;;;3.10;;
49728;SDS011;66333;49.798;10.968;2023-01-08T03:22:48;5.70;;;2.73;;
49728;SDS011;66333;49.798;10.968;2023-01-08T03:25:18;6.43;;;3.47;;
49728;SDS011;66333;49.798;10.968;2023-01-08T03:27:47;5.37;;;3.10;;
49728;SDS011;66333;49.798;10.968;2023-01-08T03:30:19;5.50;;;2.97;;
49728;SDS011;66333;49.798;10.968;2023-01-08T03:32:47;5.33;;;2.83;;
49728;SDS011;66333;49.798;10.968;2023-01-08T03:35:17;5.30;;;3.30;;
49728;SDS011;66333;49.798;10.968;2023-01-08T03:37:48;5.00;;;2.97;;
49728;SDS011;66333;49.798;10.968;2023-01-08T03:40:20;5.73;;;3.20;;
49728;SDS011;66333;49.798;10.968;2023-01-08T03:42:50;5.97;;;3.40;;
49728;SDS011;66333;49.798;10.968;2023-01-08T03:45:16;5.77;;;3.30;;
49728;SDS011;66333;49.798;10.968;2023-01-08T03:47:44;6.07;;;3.60;;
49728;SDS011;66333;49.798;10.968;2023-01-08T03:50:13;5.73;;;2.87;;
49728;SDS011;66333;49.798;10.968;2023-01-08T03:52:46;5.00;;;3.08;;
49728;SDS011;66333;49.798;10.968;2023-01-08T03:55:12;4.97;;;2.97;;
49728;SDS011;66333;49.798;10.968;2023-01-08T03:57:38;5.20;;;3.20;;
49728;SDS011;66333;49.798;10.968;2023-01-08T04:00:05;5.03;;;2.80;;
49728;SDS011;66333;49.798;10.968;2023-01-08T04:02:32;4.50;;;2.83;;
49728;SDS011;66333;49.798;10.968;2023-01-08T04:05:00;6.37;;;3.20;;
49728;SDS011;66333;49.798;10.968;2023-01-08T04:07:27;5.70;;;3.10;;
49728;SDS011;66333;49.798;10.968;2023-01-08T04:09:53;5.23;;;3.10;;
49728;SDS011;66333;49.798;10.968;2023-01-08T04:12:20;5.33;;;3.13;;
49728;SDS011;66333;49.798;10.968;2023-01-08T04:14:48;5.40;;;3.00;;
49728;SDS011;66333;49.798;10.968;2023-01-08T04:17:14;5.63;;;3.10;;
49728;SDS011;66333;49.798;10.968;2023-01-08T04:19:41;5.40;;;2.93;;
49728;SDS011;66333;49.798;10.968;2023-01-08T04:22:09;5.20;;;3.30;;
49728;SDS011;66333;49.798;10.968;2023-01-08T04:24:36;5.47;;;3.47;;
49728;SDS011;66333;49.798;10.968;2023-01-08T04:27:02;5.93;;;3.50;;
49728;SDS011;66333;49.798;10.968;2023-01-08T04:29:29;5.20;;;2.90;;
49728;SDS011;66333;49.798;10.968;2023-01-08T04:31:55;5.07;;;3.10;;
49728;SDS011;66333;49.798;10.968;2023-01-08T04:34:22;5.43;;;3.37;;
49728;SDS011;66333;49.798;10.968;2023-01-08T04:36:48;5.27;;;3.23;;
49728;SDS011;66333;49.798;10.968;2023-01-08T04:39:16;5.03;;;3.07;;
49728;SDS011;66333;49.798;10.968;2023-01-08T04:41:42;5.00;;;3.00;;
49728;SDS011;66333;49.798;10.968;2023-01-08T04:44:09;6.07;;;3.30;;
49728;SDS011;66333;49.798;10.968;2023-01-08T04:46:35;4.90;;;2.83;;
49728;SDS011;66333;49.798;10.968;2023-01-08T04:49:02;5.87;;;3.30;;
49728;SDS011;66333;49.798;10.968;2023-01-08T04:51:28;6.37;;;3.53;;
49728;SDS011;66333;49.798;10.968;2023-01-08T04:53:54;5.87;;;3.70;;
49728;SDS011;66333;49.798;10.968;2023-01-08T04:56:22;5.20;;;3.13;;
49728;SDS011;66333;49.798;10.968;2023-01-08T04:58:49;5.60;;;3.07;;
49728;SDS011;66333;49.798;10.968;2023-01-08T05:01:17;4.80;;;2.90;;
49728;SDS011;66333;49.798;10.968;2023-01-08T05:03:45;5.47;;;3.17;;
49728;SDS011;66333;49.798;10.968;2023-01-08T05:06:12;5.93;;;3.10;;
49728;SDS011;66333;49.798;10.968;2023-01-08T05:08:38;5.90;;;3.23;;
49728;SDS011;66333;49.798;10.968;2023-01-08T05:11:05;5.17;;;3.10;;
49728;SDS011;66333;49.798;10.968;2023-01-08T05:13:32;5.53;;;3.10;;
49728;SDS011;66333;49.798;10.968;2023-01-08T05:15:59;6.03;;;3.20;;
49728;SDS011;66333;49.798;10.968;2023-01-08T05:18:26;5.20;;;3.00;;
49728;SDS011;66333;49.798;10.968;2023-01-08T05:20:52;5.33;;;3.20;;
49728;SDS011;66333;49.798;10.968;2023-01-08T05:23:19;5.37;;;3.30;;
49728;SDS011;66333;49.798;10.968;2023-01-08T05:25:45;6.63;;;3.23;;
49728;SDS011;66333;49.798;10.968;2023-01-08T05:28:11;5.60;;;3.30;;
49728;SDS011;66333;49.798;10.968;2023-01-08T05:30:39;7.33;;;3.40;;
49728;SDS011;66333;49.798;10.968;2023-01-08T05:33:06;4.97;;;2.90;;
49728;SDS011;66333;49.798;10.968;2023-01-08T05:35:32;5.73;;;3.37;;
49728;SDS011;66333;49.798;10.968;2023-01-08T05:37:58;5.43;;;3.10;;
49728;SDS011;66333;49.798;10.968;2023-01-08T05:40:25;5.67;;;3.07;;
49728;SDS011;66333;49.798;10.968;2023-01-08T05:42:51;5.10;;;3.10;;
49728;SDS011;66333;49.798;10.968;2023-01-08T05:45:18;5.67;;;2.90;;
49728;SDS011;66333;49.798;10.968;2023-01-08T05:47:45;4.83;;;2.73;;
49728;SDS011;66333;49.798;10.968;2023-01-08T05:50:12;5.90;;;3.57;;
49728;SDS011;66333;49.798;10.968;2023-01-08T05:52:38;5.20;;;3.00;;
49728;SDS011;66333;49.798;10.968;2023-01-08T05:55:05;5.43;;;3.13;;
49728;SDS011;66333;49.798;10.968;2023-01-08T05:57:32;5.10;;;3.23;;
49728;SDS011;66333;49.798;10.968;2023-01-08T05:59:58;5.13;;;3.30;;
49728;SDS011;66333;49.798;10.968;2023-01-08T06:02:24;6.23;;;3.30;;
49728;SDS011;66333;49.798;10.968;2023-01-08T06:04:52;5.53;;;3.20;;
49728;SDS011;66333;49.798;10.968;2023-01-08T06:07:18;5.17;;;3.33;;
49728;SDS011;66333;49.798;10.968;2023-01-08T06:09:45;5.57;;;3.20;;
49728;SDS011;66333;49.798;10.968;2023-01-08T06:12:11;5.40;;;3.33;;
49728;SDS011;66333;49.798;10.968;2023-01-08T06:14:38;5.20;;;3.17;;
49728;SDS011;66333;49.798;10.968;2023-01-08T06:17:04;5.73;;;3.37;;
49728;SDS011;66333;49.798;10.968;2023-01-08T06:19:30;5.67;;;3.20;;
49728;SDS011;66333;49.798;10.968;2023-01-08T06:21:58;5.27;;;3.30;;
49728;SDS011;66333;49.798;10.968;2023-01-08T06:24:25;5.97;;;3.27;;
49728;SDS011;66333;49.798;10.968;2023-01-08T06:26:51;5.53;;;3.03;;
49728;SDS011;66333;49.798;10.968;2023-01-08T06:29:17;5.50;;;3.37;;
49728;SDS011;66333;49.798;10.968;2023-01-08T06:31:44;5.30;;;3.10;;
49728;SDS011;66333;49.798;10.968;2023-01-08T06:34:10;5.57;;;3.20;;
49728;SDS011;66333;49.798;10.968;2023-01-08T06:36:37;5.43;;;3.33;;
49728;SDS011;66333;49.798;10.968;2023-01-08T06:39:05;5.10;;;3.03;;
49728;SDS011;66333;49.798;10.968;2023-01-08T06:41:31;5.73;;;3.37;;
49728;SDS011;66333;49.798;10.968;2023-01-08T06:43:58;4.90;;;2.90;;
49728;SDS011;66333;49.798;10.968;2023-01-08T06:46:24;4.97;;;2.80;;
49728;SDS011;66333;49.798;10.968;2023-01-08T06:48:51;6.80;;;3.30;;
49728;SDS011;66333;49.798;10.968;2023-01-08T06:51:17;5.70;;;3.27;;
49728;SDS011;66333;49.798;10.968;2023-01-08T06:53:46;6.20;;;3.30;;
49728;SDS011;66333;49.798;10.968;2023-01-08T06:56:14;4.70;;;2.80;;
49728;SDS011;66333;49.798;10.968;2023-01-08T06:58:40;5.03;;;2.97;;
49728;SDS011;66333;49.798;10.968;2023-01-08T07:01:09;5.70;;;3.07;;
49728;SDS011;66333;49.798;10.968;2023-01-08T07:03:38;5.73;;;2.83;;
49728;SDS011;66333;49.798;10.968;2023-01-08T07:06:05;5.97;;;3.10;;
49728;SDS011;66333;49.798;10.968;2023-01-08T07:08:32;4.90;;;2.80;;
49728;SDS011;66333;49.798;10.968;2023-01-08T07:11:00;4.97;;;2.90;;
49728;SDS011;66333;49.798;10.968;2023-01-08T07:13:29;5.20;;;3.27;;
49728;SDS011;66333;49.798;10.968;2023-01-08T07:15:55;4.80;;;3.10;;
49728;SDS011;66333;49.798;10.968;2023-01-08T07:18:21;5.93;;;3.13;;
49728;SDS011;66333;49.798;10.968;2023-01-08T07:20:48;5.63;;;3.17;;
49728;SDS011;66333;49.798;10.968;2023-01-08T07:23:14;5.63;;;3.27;;
49728;SDS011;66333;49.798;10.968;2023-01-08T07:25:41;5.27;;;2.90;;
49728;SDS011;66333;49.798;10.968;2023-01-08T07:28:09;6.40;;;3.20;;
49728;SDS011;66333;49.798;10.968;2023-01-08T07:30:38;6.13;;;3.70;;
49728;SDS011;66333;49.798;10.968;2023-01-08T07:33:04;6.33;;;3.60;;
49728;SDS011;66333;49.798;10.968;2023-01-08T07:35:31;5.80;;;3.60;;
49728;SDS011;66333;49.798;10.968;2023-01-08T07:37:59;6.00;;;3.50;;
49728;SDS011;66333;49.798;10.968;2023-01-08T07:40:25;5.57;;;3.20;;
49728;SDS011;66333;49.798;10.968;2023-01-08T07:42:58;5.43;;;3.23;;
49728;SDS011;66333;49.798;10.968;2023-01-08T07:45:26;6.57;;;3.57;;
49728;SDS011;66333;49.798;10.968;2023-01-08T07:47:54;6.40;;;3.40;;
49728;SDS011;66333;49.798;10.968;2023-01-08T07:50:21;6.00;;;3.27;;
49728;SDS011;66333;49.798;10.968;2023-01-08T07:52:48;5.23;;;3.40;;
49728;SDS011;66333;49.798;10.968;2023-01-08T07:55:14;5.97;;;3.70;;
49728;SDS011;66333;49.798;10.968;2023-01-08T07:57:41;6.33;;;3.67;;
49728;SDS011;66333;49.798;10.968;2023-01-08T08:00:08;6.50;;;3.77;;
49728;SDS011;66333;49.798;10.968;2023-01-08T08:02:35;6.10;;;3.97;;
49728;SDS011;66333;49.798;10.968;2023-01-08T08:05:03;6.30;;;3.90;;
49728;SDS011;66333;49.798;10.968;2023-01-08T08:07:30;8.63;;;3.60;;
49728;SDS011;66333;49.798;10.968;2023-01-08T08:09:56;5.50;;;3.50;;
49728;SDS011;66333;49.798;10.968;2023-01-08T08:12:23;6.00;;;3.73;;
49728;SDS011;66333;49.798;10.968;2023-01-08T08:14:49;5.30;;;3.40;;
49728;SDS011;66333;49.798;10.968;2023-01-08T08:17:16;7.07;;;3.77;;
49728;SDS011;66333;49.798;10.968;2023-01-08T08:19:42;6.70;;;4.13;;
49728;SDS011;66333;49.798;10.968;2023-01-08T08:22:11;6.30;;;3.87;;
49728;SDS011;66333;49.798;10.968;2023-01-08T08:24:37;5.30;;;3.40;;
49728;SDS011;66333;49.798;10.968;2023-01-08T08:27:03;5.63;;;3.43;;
49728;SDS011;66333;49.798;10.968;2023-01-08T08:29:30;7.20;;;4.07;;
49728;SDS011;66333;49.798;10.968;2023-01-08T08:31:57;6.30;;;3.77;;
49728;SDS011;66333;49.798;10.968;2023-01-08T08:34:23;5.83;;;3.53;;
49728;SDS011;66333;49.798;10.968;2023-01-08T08:36:49;8.60;;;3.63;;
49728;SDS011;66333;49.798;10.968;2023-01-08T08:39:17;5.00;;;3.20;;
49728;SDS011;66333;49.798;10.968;2023-01-08T08:41:43;6.07;;;3.67;;
49728;SDS011;66333;49.798;10.968;2023-01-08T08:44:10;5.97;;;3.60;;
49728;SDS011;66333;49.798;10.968;2023-01-08T08:46:36;6.30;;;3.33;;
49728;SDS011;66333;49.798;10.968;2023-01-08T08:49:03;5.93;;;3.83;;
49728;SDS011;66333;49.798;10.968;2023-01-08T08:51:29;6.27;;;3.70;;
49728;SDS011;66333;49.798;10.968;2023-01-08T08:53:55;5.87;;;3.43;;
49728;SDS011;66333;49.798;10.968;2023-01-08T08:56:23;5.73;;;3.33;;
49728;SDS011;66333;49.798;10.968;2023-01-08T08:58:50;5.60;;;3.47;;
49728;SDS011;66333;49.798;10.968;2023-01-08T09:01:16;5.37;;;3.27;;
49728;SDS011;66333;49.798;10.968;2023-01-08T09:03:43;6.47;;;3.70;;
49728;SDS011;66333;49.798;10.968;2023-01-08T09:06:11;6.17;;;3.70;;
49728;SDS011;66333;49.798;10.968;2023-01-08T09:08:38;6.60;;;3.60;;
49728;SDS011;66333;49.798;10.968;2023-01-08T09:11:04;6.27;;;3.50;;
49728;SDS011;66333;49.798;10.968;2023-01-08T09:13:32;6.80;;;3.80;;
49728;SDS011;66333;49.798;10.968;2023-01-08T09:15:59;5.73;;;3.70;;
49728;SDS011;66333;49.798;10.968;2023-01-08T09:18:25;5.97;;;3.67;;
49728;SDS011;66333;49.798;10.968;2023-01-08T09:20:52;6.20;;;3.70;;
49728;SDS011;66333;49.798;10.968;2023-01-08T09:23:18;5.80;;;3.43;;
49728;SDS011;66333;49.798;10.968;2023-01-08T09:25:44;5.70;;;3.67;;
49728;SDS011;66333;49.798;10.968;2023-01-08T09:28:11;5.77;;;3.50;;
49728;SDS011;66333;49.798;10.968;2023-01-08T09:30:39;6.73;;;3.70;;
49728;SDS011;66333;49.798;10.968;2023-01-08T09:33:05;6.53;;;3.87;;
49728;SDS011;66333;49.798;10.968;2023-01-08T09:35:32;6.13;;;3.13;;
49728;SDS011;66333;49.798;10.968;2023-01-08T09:37:59;6.23;;;3.73;;
49728;SDS011;66333;49.798;10.968;2023-01-08T09:40:27;6.83;;;4.00;;
49728;SDS011;66333;49.798;10.968;2023-01-08T09:42:57;5.90;;;3.57;;
49728;SDS011;66333;49.798;10.968;2023-01-08T09:45:27;6.17;;;3.40;;
49728;SDS011;66333;49.798;10.968;2023-01-08T09:47:57;7.53;;;3.57;;
49728;SDS011;66333;49.798;10.968;2023-01-08T09:50:27;5.97;;;3.47;;
49728;SDS011;66333;49.798;10.968;2023-01-08T09:52:56;5.50;;;3.40;;
49728;SDS011;66333;49.798;10.968;2023-01-08T09:55:23;5.93;;;3.47;;
49728;SDS011;66333;49.798;10.968;2023-01-08T09:57:49;7.23;;;3.80;;
49728;SDS011;66333;49.798;10.968;2023-01-08T10:00:17;5.67;;;3.50;;
49728;SDS011;66333;49.798;10.968;2023-01-08T10:02:47;10.23;;;3.50;;
49728;SDS011;66333;49.798;10.968;2023-01-08T10:05:16;6.93;;;3.70;;
49728;SDS011;66333;49.798;10.968;2023-01-08T10:07:43;5.83;;;3.40;;
49728;SDS011;66333;49.798;10.968;2023-01-08T10:10:15;5.73;;;3.47;;
49728;SDS011;66333;49.798;10.968;2023-01-08T10:12:43;5.33;;;3.50;;
49728;SDS011;66333;49.798;10.968;2023-01-08T10:15:12;7.30;;;3.37;;
49728;SDS011;66333;49.798;10.968;2023-01-08T10:17:40;7.53;;;3.47;;
49728;SDS011;66333;49.798;10.968;2023-01-08T10:20:11;6.07;;;3.30;;
49728;SDS011;66333;49.798;10.968;2023-01-08T10:22:40;6.40;;;3.37;;
49728;SDS011;66333;49.798;10.968;2023-01-08T10:25:09;7.00;;;3.30;;
49728;SDS011;66333;49.798;10.968;2023-01-08T10:27:44;6.63;;;3.57;;
49728;SDS011;66333;49.798;10.968;2023-01-08T10:30:16;7.90;;;3.15;;
49728;SDS011;66333;49.798;10.968;2023-01-08T10:32:45;8.03;;;3.50;;
49728;SDS011;66333;49.798;10.968;2023-01-08T10:35:15;8.23;;;3.50;;
49728;SDS011;66333;49.798;10.968;2023-01-08T10:37:45;6.67;;;3.40;;
49728;SDS011;66333;49.798;10.968;2023-01-08T10:40:19;5.57;;;3.23;;
49728;SDS011;66333;49.798;10.968;2023-01-08T10:42:49;6.73;;;3.63;;
49728;SDS011;66333;49.798;10.968;2023-01-08T10:45:17;5.60;;;3.10;;
49728;SDS011;66333;49.798;10.968;2023-01-08T10:47:47;5.60;;;3.27;;
49728;SDS011;66333;49.798;10.968;2023-01-08T10:50:17;6.90;;;3.57;;
49728;SDS011;66333;49.798;10.968;2023-01-08T10:52:52;5.50;;;3.30;;
49728;SDS011;66333;49.798;10.968;2023-01-08T10:55:21;6.00;;;3.50;;
49728;SDS011;66333;49.798;10.968;2023-01-08T10:57:52;6.40;;;3.73;;
49728;SDS011;66333;49.798;10.968;2023-01-08T11:00:22;6.53;;;3.50;;
49728;SDS011;66333;49.798;10.968;2023-01-08T11:02:49;6.30;;;3.63;;
49728;SDS011;66333;49.798;10.968;2023-01-08T11:05:17;5.63;;;3.40;;
49728;SDS011;66333;49.798;10.968;2023-01-08T11:07:46;5.83;;;3.67;;
49728;SDS011;66333;49.798;10.968;2023-01-08T11:10:24;6.47;;;3.57;;
49728;SDS011;66333;49.798;10.968;2023-01-08T11:12:53;6.43;;;3.30;;
49728;SDS011;66333;49.798;10.968;2023-01-08T11:15:31;8.47;;;3.40;;
49728;SDS011;66333;49.798;10.968;2023-01-08T11:18:03;5.43;;;3.30;;
49728;SDS011;66333;49.798;10.968;2023-01-08T11:20:31;5.93;;;3.13;;
49728;SDS011;66333;49.798;10.968;2023-01-08T11:23:05;5.37;;;3.17;;
49728;SDS011;66333;49.798;10.968;2023-01-08T11:25:33;6.57;;;3.60;;
49728;SDS011;66333;49.798;10.968;2023-01-08T11:28:00;5.67;;;3.60;;
49728;SDS011;66333;49.798;10.968;2023-01-08T11:30:29;6.00;;;3.50;;
49728;SDS011;66333;49.798;10.968;2023-01-08T11:33:02;7.50;;;3.53;;
49728;SDS011;66333;49.798;10.968;2023-01-08T11:35:32;6.27;;;3.30;;
49728;SDS011;66333;49.798;10.968;2023-01-08T11:38:04;8.20;;;3.30;;
49728;SDS011;66333;49.798;10.968;2023-01-08T11:40:36;6.07;;;3.43;;
49728;SDS011;66333;49.798;10.968;2023-01-08T11:43:12;6.73;;;3.30;;
49728;SDS011;66333;49.798;10.968;2023-01-08T11:45:52;6.10;;;3.40;;
49728;SDS011;66333;49.798;10.968;2023-01-08T11:48:53;5.17;;;2.97;;
49728;SDS011;66333;49.798;10.968;2023-01-08T11:51:35;6.53;;;3.37;;
49728;SDS011;66333;49.798;10.968;2023-01-08T11:54:13;6.10;;;3.20;;
49728;SDS011;66333;49.798;10.968;2023-01-08T11:56:56;5.93;;;3.20;;
49728;SDS011;66333;49.798;10.968;2023-01-08T11:59:35;5.50;;;3.30;;
49728;SDS011;66333;49.798;10.968;2023-01-08T12:02:18;5.90;;;3.27;;
49728;SDS011;66333;49.798;10.968;2023-01-08T12:04:57;6.57;;;3.90;;
49728;SDS011;66333;49.798;10.968;2023-01-08T12:07:43;5.55;;;3.42;;
49728;SDS011;66333;49.798;10.968;2023-01-08T12:10:19;6.87;;;3.20;;
49728;SDS011;66333;49.798;10.968;2023-01-08T12:12:54;6.27;;;3.30;;
49728;SDS011;66333;49.798;10.968;2023-01-08T12:15:31;7.50;;;3.43;;
49728;SDS011;66333;49.798;10.968;2023-01-08T12:21:10;5.63;;;3.27;;
49728;SDS011;66333;49.798;10.968;2023-01-08T12:23:52;5.63;;;3.17;;
49728;SDS011;66333;49.798;10.968;2023-01-08T12:26:31;5.40;;;3.17;;
49728;SDS011;66333;49.798;10.968;2023-01-08T12:29:17;5.10;;;3.37;;
49728;SDS011;66333;49.798;10.968;2023-01-08T12:35:01;5.27;;;3.00;;
49728;SDS011;66333;49.798;10.968;2023-01-08T12:37:33;6.33;;;3.37;;
49728;SDS011;66333;49.798;10.968;2023-01-08T12:40:11;4.93;;;2.97;;
49728;SDS011;66333;49.798;10.968;2023-01-08T12:42:40;5.63;;;3.10;;
49728;SDS011;66333;49.798;10.968;2023-01-08T12:45:15;5.73;;;3.17;;
49728;SDS011;66333;49.798;10.968;2023-01-08T12:47:46;5.23;;;3.40;;
49728;SDS011;66333;49.798;10.968;2023-01-08T12:50:20;5.73;;;3.27;;
49728;SDS011;66333;49.798;10.968;2023-01-08T12:52:54;5.70;;;3.53;;
49728;SDS011;66333;49.798;10.968;2023-01-08T12:55:26;5.80;;;3.20;;
49728;SDS011;66333;49.798;10.968;2023-01-08T12:57:59;5.13;;;2.73;;
49728;SDS011;66333;49.798;10.968;2023-01-08T13:00:38;6.90;;;3.40;;
49728;SDS011;66333;49.798;10.968;2023-01-08T13:03:10;5.63;;;3.50;;
49728;SDS011;66333;49.798;10.968;2023-01-08T13:05:38;5.70;;;3.10;;
49728;SDS011;66333;49.798;10.968;2023-01-08T13:08:17;6.30;;;3.67;;
49728;SDS011;66333;49.798;10.968;2023-01-08T13:10:49;7.43;;;3.30;;
49728;SDS011;66333;49.798;10.968;2023-01-08T13:13:22;5.87;;;3.30;;
49728;SDS011;66333;49.798;10.968;2023-01-08T13:15:53;6.80;;;3.20;;
49728;SDS011;66333;49.798;10.968;2023-01-08T13:18:31;5.80;;;3.27;;
49728;SDS011;66333;49.798;10.968;2023-01-08T13:20:58;5.80;;;3.43;;
49728;SDS011;66333;49.798;10.968;2023-01-08T13:23:27;6.10;;;3.20;;
49728;SDS011;66333;49.798;10.968;2023-01-08T13:25:56;5.73;;;3.10;;
49728;SDS011;66333;49.798;10.968;2023-01-08T13:28:26;6.67;;;3.87;;
49728;SDS011;66333;49.798;10.968;2023-01-08T13:31:05;5.07;;;2.90;;
49728;SDS011;66333;49.798;10.968;2023-01-08T13:33:37;6.40;;;3.30;;
49728;SDS011;66333;49.798;10.968;2023-01-08T13:36:14;5.80;;;3.20;;
49728;SDS011;66333;49.798;10.968;2023-01-08T13:38:43;6.60;;;3.60;;
49728;SDS011;66333;49.798;10.968;2023-01-08T13:41:23;5.20;;;3.17;;
49728;SDS011;66333;49.798;10.968;2023-01-08T13:43:50;4.87;;;2.90;;
49728;SDS011;66333;49.798;10.968;2023-01-08T13:48:54;6.00;;;3.13;;
49728;SDS011;66333;49.798;10.968;2023-01-08T13:54:21;5.47;;;2.87;;
49728;SDS011;66333;49.798;10.968;2023-01-08T13:57:00;5.50;;;3.07;;
49728;SDS011;66333;49.798;10.968;2023-01-08T13:59:30;5.20;;;3.07;;
49728;SDS011;66333;49.798;10.968;2023-01-08T14:02:16;6.03;;;3.30;;
49728;SDS011;66333;49.798;10.968;2023-01-08T14:04:47;5.57;;;3.40;;
49728;SDS011;66333;49.798;10.968;2023-01-08T14:07:14;5.67;;;3.17;;
49728;SDS011;66333;49.798;10.968;2023-01-08T14:09:41;5.93;;;3.50;;
49728;SDS011;66333;49.798;10.968;2023-01-08T14:12:07;5.70;;;3.30;;
49728;SDS011;66333;49.798;10.968;2023-01-08T14:14:38;5.87;;;3.40;;
49728;SDS011;66333;49.798;10.968;2023-01-08T14:17:12;5.27;;;3.10;;
49728;SDS011;66333;49.798;10.968;2023-01-08T14:19:41;5.10;;;3.03;;
49728;SDS011;66333;49.798;10.968;2023-01-08T14:22:10;6.90;;;3.40;;
49728;SDS011;66333;49.798;10.968;2023-01-08T14:24:42;4.53;;;2.70;;
49728;SDS011;66333;49.798;10.968;2023-01-08T14:27:18;6.13;;;3.47;;
49728;SDS011;66333;49.798;10.968;2023-01-08T14:29:46;5.37;;;3.70;;
49728;SDS011;66333;49.798;10.968;2023-01-08T14:32:15;5.43;;;3.13;;
49728;SDS011;66333;49.798;10.968;2023-01-08T14:34:43;5.77;;;3.00;;
49728;SDS011;66333;49.798;10.968;2023-01-08T14:37:11;5.83;;;3.10;;
49728;SDS011;66333;49.798;10.968;2023-01-08T14:39:38;5.60;;;3.37;;
49728;SDS011;66333;49.798;10.968;2023-01-08T14:42:05;5.67;;;3.20;;
49728;SDS011;66333;49.798;10.968;2023-01-08T14:44:52;5.07;;;2.90;;
49728;SDS011;66333;49.798;10.968;2023-01-08T14:47:21;5.00;;;2.87;;
49728;SDS011;66333;49.798;10.968;2023-01-08T14:49:56;5.33;;;3.30;;
49728;SDS011;66333;49.798;10.968;2023-01-08T14:52:22;5.40;;;3.20;;
49728;SDS011;66333;49.798;10.968;2023-01-08T14:54:50;5.53;;;2.80;;
49728;SDS011;66333;49.798;10.968;2023-01-08T14:57:20;6.37;;;3.47;;
49728;SDS011;66333;49.798;10.968;2023-01-08T14:59:47;5.20;;;3.17;;
49728;SDS011;66333;49.798;10.968;2023-01-08T15:02:23;5.20;;;3.20;;